Terminal Aerodrome Forecast
Issued by NWS

Home | Current Version | Previous Version | Graphics & Text | Print | Product List | Glossary On
Versions: 1 2 3 4 5 6 7 8 9 10 11 12 13 14 15 16 17
000
FTUS43 KGRB 260800 AAB
TAFATW
TAF AMD
KATW 260831Z 2609/2706 29006KT P6SM VCSH SCT004 SCT040
      TEMPO 2609/2613 BKN035
     FM261600 28009G14KT P6SM SCT040 SCT250
     FM270200 33003KT P6SM BKN150=

USA.gov is the U.S. government's official web portal to all federal, state and local government web resources and services.